Time;durP1;ratioP1;P1;durP2;ratioP2;P2;SDS_P1;SDS_P2;PMS_P1;PMS_P2;Temp;Humidity;BMP_temperature;BMP_pressure;BME280_temperature;BME280_humidity;BME280_pressure;Samples;Min_cycle;Max_cycle;Signal;HPM_P1;HPM_P2
2022/01/10 00:03:55;;;;;;;62.80;32.77;;;;;;;-3.09;94.97;100934.44;10376686;28;20075;-78
2022/01/10 00:08:55;;;;;;;61.20;32.80;;;;;;;-3.06;95.18;100950.13;10374671;28;20113;-78
2022/01/10 00:13:56;;;;;;;62.27;31.83;;;;;;;-3.16;94.42;100963.66;10375695;28;20476;-78
2022/01/10 00:18:56;;;;;;;58.70;29.67;;;;;;;-3.36;94.36;100965.78;10372506;28;20038;-77
2022/01/10 00:23:57;;;;;;;51.57;28.37;;;;;;;-3.46;94.35;100966.47;10374391;28;20076;-78
2022/01/10 00:28:57;;;;;;;53.57;30.33;;;;;;;-3.38;94.66;100964.72;10374850;28;20061;-77
2022/01/10 00:33:58;;;;;;;61.47;32.50;;;;;;;-3.42;94.65;100983.94;10374298;28;20029;-78
2022/01/10 00:38:58;;;;;;;60.13;31.60;;;;;;;-3.44;94.53;100982.88;10373502;28;20153;-77
2022/01/10 00:44:01;;;;;;;58.53;31.93;;;;;;;-3.35;94.86;100996.66;10375107;28;20061;-76
2022/01/10 00:49:01;;;;;;;62.83;33.33;;;;;;;-3.38;94.92;100996.31;10374124;28;20064;-77
2022/01/10 00:54:02;;;;;;;55.83;31.87;;;;;;;-3.45;95.22;101001.53;10373486;28;20112;-77
2022/01/10 00:59:02;;;;;;;64.10;31.33;;;;;;;-3.25;94.86;100991.75;10373574;28;20112;-77
2022/01/10 01:04:03;;;;;;;83.17;43.07;;;;;;;-3.10;95.17;100994.09;10375203;28;20187;-77
2022/01/10 01:09:08;;;;;;;72.23;38.00;;;;;;;-3.07;94.69;101004.66;10373698;28;20021;-77
2022/01/10 01:14:11;;;;;;;72.65;38.25;;;;;;;-3.01;94.81;101018.09;10372423;28;20481;-77
2022/01/10 01:19:53;;;;;;;59.85;35.53;;;;;;;-3.07;95.04;101024.25;10371620;28;20044;-77
2022/01/10 01:24:33;;;;;;;83.10;39.28;;;;;;;-3.25;95.05;101037.81;10371763;28;20030;-77
2022/01/10 01:29:34;;;;;;;70.73;36.43;;;;;;;-3.39;94.83;101045.69;10373258;28;20071;-77
2022/01/10 01:34:35;;;;;;;70.23;38.07;;;;;;;-3.45;95.01;101068.09;10407568;28;20033;-77
2022/01/10 01:39:36;;;;;;;71.95;36.22;;;;;;;-3.60;95.15;101072.47;10386466;28;20053;-77
2022/01/10 01:44:36;;;;;;;76.93;40.23;;;;;;;-3.61;94.93;101075.78;10372326;28;20551;-76
2022/01/10 01:49:37;;;;;;;65.30;35.60;;;;;;;-3.61;94.55;101088.56;10370868;28;20489;-77
2022/01/10 01:54:37;;;;;;;68.67;35.47;;;;;;;-3.69;94.54;101101.44;10370923;28;20058;-77
2022/01/10 01:59:38;;;;;;;72.30;37.07;;;;;;;-3.73;94.80;101111.16;10386173;28;20077;-77
2022/01/10 02:04:38;;;;;;;66.67;40.57;;;;;;;-3.63;94.66;101116.53;10371367;28;20053;-77
2022/01/10 02:09:39;;;;;;;82.17;41.03;;;;;;;-3.70;94.64;101117.53;10353455;28;20022;-77
2022/01/10 02:14:43;;;;;;;62.30;33.77;;;;;;;-3.61;94.52;101129.53;10354603;28;20527;-77
2022/01/10 02:19:57;;;;;;;71.35;40.75;;;;;;;-3.66;95.13;101134.13;10369070;28;20121;-76
2022/01/10 02:24:57;;;;;;;67.47;36.25;;;;;;;-3.59;94.40;101128.03;10370150;28;20100;-77
2022/01/10 02:29:58;;;;;;;74.90;39.10;;;;;;;-3.58;94.66;101146.09;10369097;28;20434;-77
2022/01/10 02:34:58;;;;;;;76.33;44.40;;;;;;;-3.67;94.98;101144.22;10372559;28;20026;-77
2022/01/10 02:40:02;;;;;;;77.10;41.03;;;;;;;-3.83;94.82;101156.22;10369741;28;20077;-77
2022/01/10 02:45:03;;;;;;;76.93;43.05;;;;;;;-3.90;95.20;101168.19;10370440;28;20481;-77
2022/01/10 02:50:04;;;;;;;74.70;41.37;;;;;;;-3.98;95.09;101164.75;10371053;28;20129;-76
2022/01/10 02:55:06;;;;;;;76.57;39.70;;;;;;;-4.02;94.63;101178.88;10375319;28;20038;-77
2022/01/10 03:00:17;;;;;;;91.32;44.75;;;;;;;-4.02;94.88;101196.78;10360034;28;20481;-76
2022/01/10 03:05:18;;;;;;;100.77;45.60;;;;;;;-4.02;95.00;101207.00;10361340;28;20029;-77
2022/01/10 03:10:19;;;;;;;75.72;43.92;;;;;;;-3.93;95.11;101212.22;10377880;28;20133;-76
2022/01/10 03:15:19;;;;;;;85.57;45.50;;;;;;;-3.84;94.88;101218.34;10376887;28;20040;-76
2022/01/10 03:20:27;;;;;;;80.53;44.60;;;;;;;-3.78;94.67;101223.25;10375795;28;20137;-77
2022/01/10 03:25:28;;;;;;;82.38;43.28;;;;;;;-3.86;95.17;101237.72;10345148;28;20442;-77
2022/01/10 03:30:28;;;;;;;86.77;44.90;;;;;;;-3.85;94.52;101239.53;10376058;28;20058;-77
2022/01/10 03:35:32;;;;;;;92.17;46.13;;;;;;;-3.90;94.73;101252.56;10376586;28;20148;-76
2022/01/10 03:40:33;;;;;;;89.25;46.85;;;;;;;-3.99;94.55;101255.00;10360117;28;20052;-76
2022/01/10 03:45:33;;;;;;;80.50;46.97;;;;;;;-4.02;94.85;101273.47;10360668;28;20030;-77
2022/01/10 03:50:36;;;;;;;91.50;49.70;;;;;;;-3.98;94.92;101277.28;10374404;28;20022;-76
2022/01/10 03:55:38;;;;;;;86.13;48.80;;;;;;;-4.02;94.96;101277.66;10376727;28;20084;-77
2022/01/10 04:00:38;;;;;;;90.78;47.47;;;;;;;-4.05;94.79;101300.34;10358085;28;20025;-76
2022/01/10 04:05:39;;;;;;;98.80;46.43;;;;;;;-4.13;95.00;101302.94;10359005;28;20025;-77
2022/01/10 04:10:39;;;;;;;78.03;44.87;;;;;;;-4.11;95.03;101312.44;10374886;28;20054;-76
2022/01/10 04:15:40;;;;;;;80.57;47.33;;;;;;;-4.01;94.75;101329.00;10358262;28;20145;-77
2022/01/10 04:20:42;;;;;;;111.33;57.30;;;;;;;-3.91;94.53;101338.59;10375118;28;20057;-77
2022/01/10 04:25:42;;;;;;;;;;;;;;;-3.61;94.57;101347.00;10357697;28;20038;-75
2022/01/10 04:30:43;;;;;;;103.82;55.75;;;;;;;-3.38;95.10;101352.13;10371789;28;19917;-76
2022/01/10 04:35:44;;;;;;;126.53;58.73;;;;;;;-3.03;95.35;101361.88;10356594;28;20076;-78
2022/01/10 04:40:44;;;;;;;151.10;62.73;;;;;;;-2.84;94.59;101377.59;10340807;28;20042;-77
2022/01/10 04:45:45;;;;;;;125.00;56.80;;;;;;;-2.68;95.29;101380.19;10357338;28;20421;-78
2022/01/10 04:51:11;;;;;;;112.65;54.55;;;;;;;-2.59;95.61;101394.00;10373099;28;20496;-77
2022/01/10 04:56:13;;;;;;;139.43;64.28;;;;;;;-2.47;95.29;101406.34;10373305;28;20375;-77
2022/01/10 05:01:14;;;;;;;176.27;62.83;;;;;;;-2.43;95.58;101417.06;10371634;28;20458;-78
2022/01/10 05:06:14;;;;;;;137.67;59.70;;;;;;;-2.34;94.94;101431.63;10371874;28;20072;-78
2022/01/10 05:11:16;;;;;;;144.32;59.03;;;;;;;-2.26;95.47;101446.19;10374227;28;20156;-78
2022/01/10 05:16:18;;;;;;;232.00;65.22;;;;;;;-2.22;95.54;101443.22;10371045;28;20081;-78
2022/01/10 05:21:20;;;;;;;100.55;46.92;;;;;;;-2.09;96.00;101456.63;10354599;28;20076;-78
2022/01/10 05:26:21;;;;;;;181.70;63.63;;;;;;;-2.11;95.26;101455.53;10367523;28;20548;-78
2022/01/10 05:31:21;;;;;;;140.73;58.67;;;;;;;-2.15;95.78;101470.47;10375234;28;20026;-78
2022/01/10 05:36:22;;;;;;;189.77;62.65;;;;;;;-2.13;95.68;101487.81;10329489;28;20440;-77
2022/01/10 05:41:24;;;;;;;185.43;56.60;;;;;;;-2.12;95.24;101486.19;10369648;28;20046;-78
2022/01/10 05:46:25;;;;;;;213.07;67.47;;;;;;;-2.15;95.83;101512.38;10362955;28;20030;-75
2022/01/10 05:51:29;;;;;;;242.00;64.55;;;;;;;-2.12;95.23;101519.53;10367847;28;20485;-79
2022/01/10 05:56:29;;;;;;;235.38;68.95;;;;;;;-2.11;95.30;101526.47;10371207;28;20099;-79
2022/01/10 06:01:32;;;;;;;268.95;63.40;;;;;;;-2.09;95.83;101537.81;10367654;28;20125;-78
2022/01/10 06:06:33;;;;;;;191.07;54.17;;;;;;;-2.12;95.65;101540.03;10374073;28;20032;-76
2022/01/10 06:11:34;;;;;;;237.45;55.85;;;;;;;-2.14;96.06;101539.84;10385705;28;20034;-77
2022/01/10 06:16:35;;;;;;;162.77;46.83;;;;;;;-2.14;95.27;101557.81;10358570;28;20251;-77
2022/01/10 06:21:35;;;;;;;265.30;53.92;;;;;;;-2.13;95.37;101556.19;10368741;28;20041;-78
2022/01/10 06:26:36;;;;;;;92.43;36.67;;;;;;;-2.13;95.86;101561.31;10368560;28;20072;-77
2022/01/10 06:31:36;;;;;;;193.55;52.60;;;;;;;-2.15;95.44;101562.78;10361074;28;20029;-77
2022/01/10 06:36:37;;;;;;;104.80;38.45;;;;;;;-2.13;95.41;101587.84;10373891;28;20049;-77
2022/01/10 06:41:37;;;;;;;241.13;56.20;;;;;;;-2.11;95.94;101606.88;10377004;28;20453;-78
2022/01/10 06:46:38;;;;;;;148.60;45.33;;;;;;;-2.02;95.96;101606.06;10376778;28;20140;-77
2022/01/10 06:51:38;;;;;;;363.23;65.87;;;;;;;-2.06;95.94;101615.09;10358379;28;20113;-78
2022/01/10 06:56:39;;;;;;;148.97;45.00;;;;;;;-1.98;95.98;101624.56;10375726;28;20393;-78
2022/01/10 07:01:39;;;;;;;217.45;52.72;;;;;;;-1.95;96.03;101639.38;10374612;28;20057;-77
2022/01/10 07:06:41;;;;;;;212.90;49.35;;;;;;;-1.94;96.11;101654.94;10374363;28;20026;-77
2022/01/10 07:11:41;;;;;;;105.27;33.83;;;;;;;-2.00;95.62;101663.59;10357426;28;20026;-75
2022/01/10 07:16:42;;;;;;;232.15;53.42;;;;;;;-2.00;95.27;101677.34;10373732;28;20327;-76
2022/01/10 07:21:43;;;;;;;295.38;56.90;;;;;;;-1.97;95.82;101692.16;10374474;28;20359;-76
2022/01/10 07:26:44;;;;;;;179.05;44.63;;;;;;;-1.99;95.73;101702.28;10375209;28;20037;-79
2022/01/10 07:31:44;;;;;;;433.70;72.78;;;;;;;-1.94;95.57;101723.28;10350530;28;20026;-77
2022/01/10 07:36:45;;;;;;;152.85;46.70;;;;;;;-1.88;96.00;101738.47;10375606;28;20117;-77
2022/01/10 07:41:45;;;;;;;201.40;51.35;;;;;;;-1.86;95.38;101753.28;10352607;28;20054;-76
2022/01/10 07:46:46;;;;;;;110.13;40.15;;;;;;;-1.88;95.44;101759.00;10367985;28;20366;-77
2022/01/10 07:51:47;;;;;;;222.80;48.58;;;;;;;-1.85;95.89;101770.50;10375485;28;20034;-77
2022/01/10 07:56:47;;;;;;;447.33;83.75;;;;;;;-1.83;95.29;101776.72;10347446;28;20133;-77
2022/01/10 08:01:48;;;;;;;222.43;52.17;;;;;;;-1.83;95.53;101789.56;10374750;28;20470;-77
2022/01/10 08:06:49;;;;;;;179.33;46.60;;;;;;;-1.82;95.76;101793.94;10378123;28;20029;-77
2022/01/10 08:11:49;;;;;;;271.73;56.00;;;;;;;-1.74;96.15;101807.66;10388082;28;20057;-77
2022/01/10 08:16:50;;;;;;;152.38;47.83;;;;;;;-1.74;95.88;101814.44;10358631;28;20040;-77
2022/01/10 08:21:50;;;;;;;120.05;43.90;;;;;;;-1.65;95.48;101815.47;10373724;28;20041;-77
2022/01/10 08:26:52;;;;;;;209.20;46.97;;;;;;;-1.64;95.48;101823.34;10373777;28;20084;-77
2022/01/10 08:31:52;;;;;;;211.53;55.80;;;;;;;-1.49;95.37;101842.09;10379921;28;20119;-77
2022/01/10 08:36:54;;;;;;;225.95;61.60;;;;;;;-1.43;95.08;101849.59;10413696;28;20059;-77
2022/01/10 08:41:54;;;;;;;134.07;49.20;;;;;;;-1.32;95.92;101853.34;10412623;28;20483;-77
2022/01/10 08:46:55;;;;;;;113.35;41.83;;;;;;;-1.30;95.53;101874.97;10380838;28;20069;-77
2022/01/10 08:51:57;;;;;;;219.68;56.92;;;;;;;-1.20;95.94;101889.78;10413193;28;20049;-77
2022/01/10 08:56:58;;;;;;;204.60;52.50;;;;;;;-1.09;96.26;101896.09;10413099;28;20029;-77
2022/01/10 09:01:59;;;;;;;201.65;49.13;;;;;;;-1.15;95.33;101904.03;10394701;28;20427;-77
2022/01/10 09:07:02;;;;;;;219.10;48.55;;;;;;;-1.20;95.75;101903.50;10377348;28;20033;-77
2022/01/10 09:12:03;;;;;;;194.48;50.53;;;;;;;-1.15;95.98;101916.88;10402687;28;20337;-77
2022/01/10 09:17:04;;;;;;;151.05;45.70;;;;;;;-1.01;95.89;101930.38;10391071;28;20131;-77
2022/01/10 09:22:04;;;;;;;153.30;40.95;;;;;;;-0.93;95.76;101938.16;10339594;28;20030;-77
2022/01/10 09:27:05;;;;;;;325.73;65.32;;;;;;;-0.80;95.91;101944.66;10325658;28;20052;-78
2022/01/10 09:32:09;;;;;;;209.23;48.95;;;;;;;-0.79;96.02;101942.28;10370954;28;20026;-78
2022/01/10 09:37:10;;;;;;;158.20;39.92;;;;;;;-0.86;95.41;101959.41;10360577;28;20081;-75
2022/01/10 09:42:12;;;;;;;153.98;44.67;;;;;;;-0.82;95.97;101961.56;10368748;28;20069;-76
2022/01/10 09:47:13;;;;;;;278.67;59.13;;;;;;;-0.68;95.36;101963.13;10353531;28;20041;-76
2022/01/10 09:52:15;;;;;;;254.30;55.08;;;;;;;-0.50;95.49;101971.94;10367188;28;20176;-76
2022/01/10 09:57:16;;;;;;;168.60;54.63;;;;;;;-0.24;95.35;101969.66;10369529;28;20057;-78
2022/01/10 10:02:17;;;;;;;220.38;50.58;;;;;;;-0.12;95.37;101992.31;10336354;28;20465;-76
2022/01/10 10:07:18;;;;;;;192.80;48.88;;;;;;;-0.17;95.19;101995.31;10343601;28;20030;-75
2022/01/10 10:12:18;;;;;;;175.98;55.80;;;;;;;-0.04;95.22;101994.06;10343001;28;20022;-78
2022/01/10 10:17:21;;;;;;;157.55;52.67;;;;;;;0.18;95.44;102005.00;10363464;28;20766;-78
2022/01/10 10:22:21;;;;;;;;;;;;;;;0.25;95.63;102006.59;10350292;28;20381;-78
2022/01/10 10:27:22;;;;;;;153.00;50.10;;;;;;;0.67;95.75;102016.13;10385754;28;19921;-77
2022/01/10 10:32:29;;;;;;;128.30;45.70;;;;;;;0.92;95.01;102013.56;10380522;28;20374;-77
2022/01/10 10:37:31;;;;;;;101.40;47.97;;;;;;;1.06;95.21;102022.75;10408440;28;20148;-78
2022/01/10 10:42:32;;;;;;;97.03;43.78;;;;;;;0.79;95.25;102027.75;10390174;28;20040;-77
2022/01/10 10:47:34;;;;;;;83.78;39.38;;;;;;;0.87;94.99;102032.03;10410257;28;20385;-78
2022/01/10 10:52:36;;;;;;;104.35;39.97;;;;;;;1.04;94.65;102026.84;10381400;28;20441;-78
2022/01/10 10:57:37;;;;;;;95.28;38.75;;;;;;;1.47;94.76;102039.03;10380629;28;20034;-78
2022/01/10 11:02:38;;;;;;;75.03;33.97;;;;;;;1.57;94.36;102051.19;10385486;28;20087;-78
2022/01/10 11:07:39;;;;;;;67.73;32.20;;;;;;;1.56;94.01;102065.78;10394231;28;20041;-77
2022/01/10 11:12:51;;;;;;;68.30;33.88;;;;;;;1.48;92.97;102069.25;10376166;28;20068;-77
2022/01/10 11:17:59;;;;;;;62.20;30.60;;;;;;;1.58;92.80;102071.09;10342787;28;20030;-77
2022/01/10 11:23:01;;;;;;;66.57;28.77;;;;;;;1.74;91.67;102077.06;10359340;28;20030;-77
2022/01/10 11:28:24;;;;;;;34.50;19.73;;;;;;;1.86;90.77;102067.09;10375223;28;20033;-77
2022/01/10 11:33:32;;;;;;;61.10;28.95;;;;;;;1.95;90.35;102082.59;10358279;28;20029;-77
2022/01/10 11:38:44;;;;;;;44.55;24.70;;;;;;;2.84;89.32;102071.59;10359274;28;20421;-77
2022/01/10 11:43:56;;;;;;;;;;;;;;;3.53;86.20;102061.81;10384274;28;20033;-76
2022/01/10 11:48:58;;;;;;;65.90;36.50;;;;;;;4.10;82.18;102079.22;10393998;28;20304;-76
2022/01/10 11:54:10;;;;;;;37.10;18.10;;;;;;;3.94;81.56;102082.06;10382782;28;20046;-77
2022/01/10 11:59:13;;;;;;;35.03;21.02;;;;;;;6.35;74.30;102073.78;10375763;28;20301;-77
2022/01/10 12:04:14;;;;;;;30.23;18.40;;;;;;;5.62;71.91;102097.06;10359888;28;20036;-77
2022/01/10 12:09:14;;;;;;;29.35;17.45;;;;;;;5.52;72.97;102095.34;10373867;28;20040;-77
2022/01/10 12:14:15;;;;;;;31.25;17.58;;;;;;;5.77;73.25;102114.78;10357764;28;20025;-77
2022/01/10 12:19:16;;;;;;;36.08;21.73;;;;;;;5.98;74.81;102126.09;10357415;28;20084;-76
2022/01/10 12:24:16;;;;;;;32.67;17.35;;;;;;;6.84;69.90;102126.38;10350153;28;20465;-77
2022/01/10 12:29:17;;;;;;;34.85;18.52;;;;;;;6.56;70.33;102142.28;10372270;28;20018;-76
2022/01/10 12:34:17;;;;;;;33.47;16.70;;;;;;;5.05;73.58;102147.47;10372068;28;20073;-76
2022/01/10 12:39:27;;;;;;;32.10;16.67;;;;;;;4.18;76.62;102169.72;10374030;28;20573;-77
2022/01/10 12:44:28;;;;;;;32.67;15.73;;;;;;;3.49;79.64;102175.31;10373104;28;20029;-76
2022/01/10 12:49:28;;;;;;;35.55;20.73;;;;;;;3.23;81.09;102179.75;10371874;28;20022;-77
2022/01/10 12:54:29;;;;;;;28.48;14.63;;;;;;;3.36;80.65;102186.13;10372101;28;20061;-78
2022/01/10 12:59:31;;;;;;;21.55;13.85;;;;;;;3.33;80.86;102188.41;10368797;28;20038;-77
2022/01/10 13:04:34;;;;;;;24.88;12.48;;;;;;;2.94;82.15;102194.97;10370615;28;20022;-76
2022/01/10 13:09:35;;;;;;;28.48;17.38;;;;;;;2.85;83.23;102197.53;10344828;28;20033;-77
2022/01/10 13:14:35;;;;;;;27.60;15.43;;;;;;;2.93;82.26;102209.56;10352576;28;20056;-77
2022/01/10 13:19:37;;;;;;;21.92;13.07;;;;;;;2.64;82.86;102212.72;10328002;28;20064;-78
2022/01/10 13:24:50;;;;;;;21.33;10.97;;;;;;;2.23;83.80;102221.44;10370002;28;20017;-77
2022/01/10 13:29:54;;;;;;;28.90;13.75;;;;;;;1.83;84.94;102232.03;10346644;28;20351;-77
2022/01/10 13:35:04;;;;;;;36.75;16.98;;;;;;;1.54;86.14;102241.84;10337564;28;20029;-77
2022/01/10 13:40:12;;;;;;;33.40;18.33;;;;;;;1.51;86.84;102239.88;10370131;28;20076;-78
2022/01/10 13:45:13;;;;;;;34.53;16.45;;;;;;;1.52;87.44;102249.44;10370099;28;20049;-78
2022/01/10 13:50:42;;;;;;;41.80;15.67;;;;;;;1.38;88.01;102253.13;10354173;28;20022;-78
2022/01/10 13:56:05;;;;;;;33.10;17.40;;;;;;;1.38;88.41;102258.28;10368116;28;20469;-78
2022/01/10 14:01:10;;;;;;;80.97;27.70;;;;;;;1.43;88.82;102277.75;10355322;28;20036;-78
2022/01/10 14:06:12;;;;;;;33.00;18.23;;;;;;;1.42;89.25;102288.81;10347585;28;20405;-77
2022/01/10 14:11:14;;;;;;;49.88;23.88;;;;;;;1.37;89.15;102292.56;10349067;28;20427;-76
2022/01/10 14:16:18;;;;;;;32.88;19.33;;;;;;;1.33;89.73;102303.31;10372976;28;20175;-76
2022/01/10 14:21:19;;;;;;;61.70;30.35;;;;;;;1.36;89.60;102305.31;10350200;28;20034;-76
2022/01/10 14:26:20;;;;;;;94.03;25.88;;;;;;;1.31;89.52;102310.91;10368465;28;20056;-77
2022/01/10 14:31:20;;;;;;;53.35;24.48;;;;;;;1.25;89.74;102317.97;10343253;28;20434;-77
2022/01/10 14:36:21;;;;;;;168.60;33.50;;;;;;;1.04;89.97;102319.09;10370440;28;20073;-76
2022/01/10 14:41:23;;;;;;;156.13;34.33;;;;;;;0.77;90.50;102328.22;10371117;28;20539;-76
2022/01/10 14:46:25;;;;;;;99.47;29.85;;;;;;;0.67;90.85;102334.03;10370473;28;20037;-77
2022/01/10 14:51:26;;;;;;;204.50;40.95;;;;;;;0.58;90.43;102336.47;10356403;28;20030;-76
2022/01/10 14:56:29;;;;;;;99.88;29.90;;;;;;;0.52;91.06;102350.38;10357503;28;20425;-77
2022/01/10 15:01:32;;;;;;;91.55;29.38;;;;;;;0.45;91.30;102364.19;10348307;28;20127;-77
2022/01/10 15:06:33;;;;;;;85.25;27.40;;;;;;;0.39;91.71;102376.38;10358166;28;20026;-76
2022/01/10 15:11:37;;;;;;;98.75;34.20;;;;;;;0.40;92.07;102385.94;10376723;28;20037;-76
2022/01/10 15:16:39;;;;;;;72.93;32.55;;;;;;;0.48;91.53;102391.97;10366851;28;20659;-75
2022/01/10 15:21:43;;;;;;;;;;;;;;;0.37;91.67;102403.63;10331404;28;20073;-75
2022/01/10 15:26:47;;;;;;;120.93;33.17;;;;;;;0.34;92.30;102429.97;10361563;28;20387;-76
2022/01/10 15:31:47;;;;;;;115.88;31.70;;;;;;;0.31;92.27;102421.91;10354783;28;20033;-75
2022/01/10 15:36:48;;;;;;;121.70;34.28;;;;;;;0.26;93.05;102430.75;10367006;28;20034;-76
2022/01/10 15:41:52;;;;;;;75.35;35.03;;;;;;;0.22;92.45;102424.31;10365912;28;20126;-77
2022/01/10 15:46:54;;;;;;;80.32;31.52;;;;;;;0.27;92.62;102430.91;10335580;28;20058;-75
2022/01/10 15:51:54;;;;;;;119.50;43.67;;;;;;;0.26;93.35;102447.13;10367720;28;20045;-76
2022/01/10 15:56:55;;;;;;;159.15;40.83;;;;;;;0.26;93.40;102454.84;10364244;28;20417;-76
2022/01/10 16:01:56;;;;;;;103.25;36.47;;;;;;;0.27;93.36;102453.19;10368438;28;20033;-77
2022/01/10 16:06:56;;;;;;;67.07;33.53;;;;;;;0.19;93.18;102459.13;10357326;28;20037;-75
2022/01/10 16:11:58;;;;;;;133.35;41.20;;;;;;;0.16;93.38;102454.53;10372831;28;20077;-79
2022/01/10 16:16:58;;;;;;;65.82;35.33;;;;;;;0.13;93.49;102469.63;10373538;28;20385;-77
2022/01/10 16:21:59;;;;;;;80.22;32.08;;;;;;;0.22;93.28;102480.09;10359229;28;20130;-77
2022/01/10 16:27:00;;;;;;;257.40;48.60;;;;;;;0.10;93.28;102477.94;10365263;28;20079;-75
2022/01/10 16:32:00;;;;;;;160.07;42.53;;;;;;;0.12;93.68;102484.16;10383355;28;20076;-78
2022/01/10 16:37:01;;;;;;;99.43;35.97;;;;;;;0.02;93.59;102493.22;10369978;28;20103;-76
2022/01/10 16:42:02;;;;;;;98.95;33.10;;;;;;;-0.02;93.16;102497.09;10372981;28;20048;-78
2022/01/10 16:47:03;;;;;;;56.80;29.13;;;;;;;-0.04;93.64;102507.19;10355041;28;20488;-77
2022/01/10 16:52:04;;;;;;;76.40;32.25;;;;;;;-0.04;93.29;102519.19;10368511;28;20068;-81
2022/01/10 16:57:05;;;;;;;113.43;32.78;;;;;;;-0.02;92.90;102522.84;10354607;28;20389;-78
2022/01/10 17:02:05;;;;;;;83.13;35.53;;;;;;;-0.01;92.76;102519.53;10369240;28;20046;-79
2022/01/10 17:07:06;;;;;;;68.78;33.30;;;;;;;-0.08;93.27;102530.75;10355620;28;20120;-79
2022/01/10 17:12:07;;;;;;;272.65;51.05;;;;;;;-0.18;93.35;102532.97;10351974;28;20030;-78
2022/01/10 17:17:07;;;;;;;163.88;42.28;;;;;;;-0.23;93.45;102552.13;10352632;28;20046;-79
2022/01/10 17:22:08;;;;;;;236.10;53.97;;;;;;;-0.25;93.30;102548.44;10355521;28;20065;-77
2022/01/10 17:27:10;;;;;;;170.88;42.15;;;;;;;-0.28;93.25;102555.78;10368287;28;20034;-78
2022/01/10 17:32:11;;;;;;;110.72;37.92;;;;;;;-0.25;93.70;102551.00;10352143;28;20042;-81
2022/01/10 17:37:11;;;;;;;176.75;46.28;;;;;;;-0.29;94.11;102565.19;10368542;28;20049;-83
2022/01/10 17:42:12;;;;;;;153.95;39.53;;;;;;;-0.34;93.55;102567.19;10337439;28;20041;-81
2022/01/10 17:47:13;;;;;;;232.50;48.78;;;;;;;-0.27;93.78;102573.06;10352003;28;20065;-78
2022/01/10 17:52:21;;;;;;;180.70;43.70;;;;;;;-0.39;94.06;102582.84;10370744;28;20496;-78
2022/01/10 17:57:21;;;;;;;106.43;35.10;;;;;;;-0.43;93.78;102593.50;10364765;28;20038;-78
2022/01/10 18:02:22;;;;;;;204.85;43.70;;;;;;;-0.42;94.00;102603.06;10369187;28;20058;-80
2022/01/10 18:07:22;;;;;;;54.03;29.85;;;;;;;-0.47;94.40;102610.22;10335606;28;20026;-79
2022/01/10 18:12:23;;;;;;;97.43;34.78;;;;;;;-0.49;94.41;102625.47;10368601;28;20111;-81
2022/01/10 18:17:23;;;;;;;55.85;32.63;;;;;;;-0.49;94.35;102627.13;10368570;28;20046;-81
2022/01/10 18:22:24;;;;;;;50.55;33.67;;;;;;;-0.47;94.36;102630.78;10351611;28;20045;-80
2022/01/10 18:27:24;;;;;;;198.75;48.90;;;;;;;-0.33;94.31;102638.50;10358515;28;20065;-80
2022/01/10 18:32:25;;;;;;;88.93;41.58;;;;;;;-0.28;94.15;102648.44;10377738;28;20084;-79
2022/01/10 18:37:25;;;;;;;123.07;41.63;;;;;;;-0.24;94.62;102651.56;10374086;28;20125;-80
2022/01/10 18:42:26;;;;;;;113.97;43.42;;;;;;;-0.23;94.51;102660.19;10359939;28;20116;-79
2022/01/10 18:47:29;;;;;;;92.95;43.85;;;;;;;-0.20;94.42;102669.22;10375672;28;20038;-80
2022/01/10 18:52:29;;;;;;;106.10;46.03;;;;;;;-0.22;94.33;102668.13;10360875;28;20056;-80
2022/01/10 18:57:30;;;;;;;151.38;56.42;;;;;;;-0.16;94.27;102675.63;10375188;28;20072;-81
2022/01/10 19:02:30;;;;;;;165.73;68.55;;;;;;;-0.20;94.09;102702.69;10373935;28;20058;-80
2022/01/10 19:07:31;;;;;;;183.98;70.03;;;;;;;-0.17;94.35;102712.41;10371925;28;20390;-84
2022/01/10 19:12:31;;;;;;;112.72;56.15;;;;;;;-0.18;94.04;102713.16;10372857;28;20021;-81
2022/01/10 19:17:35;;;;;;;112.40;54.03;;;;;;;-0.19;94.19;102716.44;10358744;28;20505;-80
2022/01/10 19:22:36;;;;;;;95.13;51.97;;;;;;;-0.16;94.49;102727.13;10376010;28;20039;-79
2022/01/10 19:27:36;;;;;;;264.20;72.53;;;;;;;-0.18;94.48;102724.38;10376237;28;20550;-79
2022/01/10 19:32:37;;;;;;;152.07;57.58;;;;;;;-0.25;94.11;102739.81;10375334;28;20030;-80
2022/01/10 19:37:38;;;;;;;223.25;67.80;;;;;;;-0.20;94.21;102740.34;10372229;28;20482;-80
2022/01/10 19:42:39;;;;;;;73.33;43.27;;;;;;;-0.24;94.07;102745.88;10344535;28;20100;-80
2022/01/10 19:47:42;;;;;;;125.40;61.55;;;;;;;-0.26;94.42;102744.75;10377222;28;20527;-79
2022/01/10 19:52:44;;;;;;;197.57;69.75;;;;;;;-0.11;94.56;102743.13;10355204;28;20581;-79
2022/01/10 19:57:46;;;;;;;109.57;60.90;;;;;;;-0.14;94.23;102753.97;10370123;28;20048;-79
2022/01/10 20:02:46;;;;;;;111.97;59.47;;;;;;;-0.22;94.57;102758.19;10359854;28;20107;-79
2022/01/10 20:07:47;;;;;;;194.15;79.15;;;;;;;-0.25;93.89;102755.25;10356238;28;20125;-79
2022/01/10 20:12:47;;;;;;;304.02;97.75;;;;;;;-0.26;93.90;102762.78;10374881;28;20026;-79
2022/01/10 20:17:48;;;;;;;171.60;80.40;;;;;;;-0.29;94.25;102763.34;10357314;28;20057;-79
2022/01/10 20:22:49;;;;;;;160.30;85.97;;;;;;;-0.27;94.59;102769.59;10356468;28;20537;-80
2022/01/10 20:27:49;;;;;;;232.52;100.20;;;;;;;-0.27;94.66;102769.59;10347138;28;20462;-79
2022/01/10 20:32:52;;;;;;;182.25;78.53;;;;;;;-0.33;94.53;102785.19;10373035;28;20117;-79
2022/01/10 20:37:52;;;;;;;225.75;85.72;;;;;;;-0.48;94.20;102780.72;10368130;28;20501;-78
2022/01/10 20:42:53;;;;;;;284.65;82.70;;;;;;;-0.61;94.27;102779.22;10351966;28;20121;-77
2022/01/10 20:47:53;;;;;;;138.45;64.70;;;;;;;-0.70;93.59;102779.75;10371443;28;20033;-77
2022/01/10 20:52:54;;;;;;;249.25;67.72;;;;;;;-0.83;93.63;102778.22;10367082;28;20030;-78
2022/01/10 20:57:55;;;;;;;143.32;52.65;;;;;;;-0.91;94.05;102773.78;10369182;28;20026;-76
2022/01/10 21:02:56;;;;;;;124.70;47.88;;;;;;;-0.92;93.82;102784.81;10371445;28;20111;-77
2022/01/10 21:07:56;;;;;;;182.45;54.97;;;;;;;-1.03;93.55;102778.31;10370700;28;20049;-78
2022/01/10 21:12:59;;;;;;;172.98;44.45;;;;;;;-1.08;93.82;102789.66;10355645;28;20057;-78
2022/01/10 21:17:59;;;;;;;214.52;50.83;;;;;;;-1.16;94.29;102792.91;10371488;28;20076;-77
2022/01/10 21:23:00;;;;;;;114.47;40.28;;;;;;;-1.21;94.52;102800.97;10371758;28;20050;-77
2022/01/10 21:28:01;;;;;;;98.10;39.17;;;;;;;-1.22;94.53;102801.69;10373220;28;20065;-77
2022/01/10 21:33:02;;;;;;;94.70;39.90;;;;;;;-1.26;94.34;102809.75;10370745;28;20033;-77
2022/01/10 21:38:03;;;;;;;152.70;46.80;;;;;;;-1.21;94.70;102818.06;10368247;28;20501;-78
2022/01/10 21:43:04;;;;;;;237.10;60.72;;;;;;;-1.25;94.22;102820.97;10338719;28;20039;-78
2022/01/10 21:48:07;;;;;;;190.45;53.33;;;;;;;-1.30;94.45;102830.63;10370925;28;20026;-77
2022/01/10 21:53:10;;;;;;;312.88;71.45;;;;;;;-1.34;94.09;102837.06;10371072;28;20030;-77
2022/01/10 21:58:10;;;;;;;88.60;43.92;;;;;;;-1.33;94.26;102833.75;10352865;28;20125;-77
2022/01/10 22:03:11;;;;;;;150.23;52.85;;;;;;;-1.28;94.88;102833.41;10338638;28;20436;-77
2022/01/10 22:08:11;;;;;;;208.98;57.90;;;;;;;-1.30;94.81;102824.59;10352940;28;20073;-78
2022/01/10 22:13:14;;;;;;;74.88;39.90;;;;;;;-1.31;94.71;102822.75;10370593;28;20036;-77
2022/01/10 22:18:14;;;;;;;85.10;39.92;;;;;;;-1.30;94.57;102824.59;10369882;28;20026;-78
2022/01/10 22:23:15;;;;;;;105.28;42.25;;;;;;;-1.30;94.55;102825.50;10353844;28;20065;-77
2022/01/10 22:28:15;;;;;;;119.80;46.50;;;;;;;-1.31;94.26;102830.47;10370359;28;20061;-78
2022/01/10 22:33:16;;;;;;;113.80;47.85;;;;;;;-1.30;95.10;102827.16;10369820;28;20053;-78
2022/01/10 22:38:18;;;;;;;85.97;40.22;;;;;;;-1.31;94.49;102826.22;10369840;28;20120;-77